KBAD/BAD METAR and TAF weather

Enter ICAO airport designator
Station Type Date Time Source
KBAD METAR 2020/08/11 17:56 UTC NOAA

KBAD 111756Z 21006KT 10SM SCT037 34/23 A3000 RMK AO2A SLP160 58009 $


Station Type Date Time Source
KBAD Decoded METAR 2020/08/11 17:56 UTC NOAA

Barksdale Air Force Base, LA, United States (KBAD) 32-30N 093-40W
Aug 11, 2020 - 01:56 PM EDT / 2020.08.11 1756 UTC
Wind: from the SSW (210 degrees) at 7 MPH (6 KT):0
Visibility: 10 mile(s):0
Sky conditions: partly cloudy
Temperature: 93 F (34 C)
Heat index: 101.8 F (38.8 C):1
Dew Point: 73 F (23 C)
Relative Humidity: 52%
Pressure (altimeter): 30 in. Hg (1015 hPa)
Pressure tendency: 0.03 inches (0.9 hPa) lower than three hours ago
ob: KBAD 111756Z 21006KT 10SM SCT037 34/23 A3000 RMK AO2A SLP160 58009
cycle: 18

Station Type Date Time Source
KBAD TAF 2020/08/11 18:03 UTC NOAA

TAF TAF KBAD 111800Z 1118/1224 21008KT 9999 SCT040 QNH2991INS
BECMG 1121/1122 22008KT 9999 VCTS BKN050CB QNH2991INS
BECMG 1201/1202 15006KT 9999 NSW SCT250 QNH2993INS
BECMG 1210/1211 19007KT 9999 VCSH SCT015 BKN120 OVC200 QNH2996INS
BECMG 1214/1215 22012KT 9999 -SHRA VCTS SCT025CB OVC100 QNH2997INS
BECMG 1220/1221 23010KT 9999 NSW FEW035 BKN120 QNH2992INS TX36/1121Z TN26/1212Z

Example: see airport list